This is the latest recevied weather packets stored in our database for station/object GW1477. If no packets are shown the sender has not sent any weather packets the latest 10 day(s).
| Time | Temp. | Humidity | Pressure | Rain* | Wind** | Luminosity | Snow |
|---|---|---|---|---|---|---|---|
| 1777927172 | 18.89° C | 48% | - | 0 mm | - | - | - |
| 1777925741 | 18.89° C | 49% | - | 0 mm | - | - | - |
| 1777923577 | 18.33° C | 50% | - | 0 mm | - | - | - |
| 1777922842 | 18.33° C | 49% | - | 0 mm | - | - | - |
| 1777921789 | 18.33° C | 50% | - | 0 mm | - | - | - |
| 1777921054 | 18.33° C | 50% | - | 0 mm | - | - | - |
| 1777920335 | 17.22° C | 53% | - | 0 mm | - | - | - |
| 1777917800 | 16.67° C | 54% | - | 0 mm | - | - | - |
| 1777917468 | 16.11° C | 55% | - | 0 mm | - | - | - |
| 1777915633 | 16.11° C | 55% | - | 0 mm | - | - | - |
| 1777913498 | 15° C | 56% | - | 0 mm | - | - | - |
| 1777911690 | 15° C | 54% | - | 0 mm | - | - | - |
| 1777911312 | 15° C | 53% | - | 0 mm | - | - | - |
| 1777910082 | 15.56° C | 51% | - | 0 mm | - | - | - |
| 1777908269 | 14.44° C | 52% | - | 0 mm | - | - | - |
| 1777907533 | 14.44° C | 52% | - | 0 mm | - | - | - |
| 1777906483 | 14.44° C | 51% | - | 0 mm | - | - | - |
| 1777903613 | 13.33° C | 54% | - | 0 mm | - | - | - |
| 1777902871 | 12.78° C | 56% | - | 0 mm | - | - | - |
| 1777902164 | 11.67° C | 57% | - | 0 mm | - | - | - |
| 1777898905 | 9.44° C | 68% | - | 0 mm | - | - | - |
| 1777896405 | 7.78° C | 74% | - | 0 mm | - | - | - |
| 1777895324 | 6.67° C | 77% | - | 0 mm | - | - | - |
| 1777892430 | 4.44° C | 83% | - | 0 mm | - | - | - |
| 1777888488 | 6.11° C | 79% | - | 0 mm | - | - | - |
* Rain since midnight (hover to see other rain measurements)
** Current wind speed in m/s (hover to see current wind gust speed)